createdAt,value
2019-03-24T00:00:05.421Z,53.15
2019-03-24T00:03:09.277Z,52.25
2019-03-24T00:06:13.043Z,50.63
2019-03-24T00:09:16.362Z,54.05
2019-03-24T00:12:20.176Z,53.73
2019-03-24T00:15:26.424Z,54.95
2019-03-24T00:18:29.084Z,54.90
2019-03-24T00:21:32.440Z,51.85
2019-03-24T00:24:35.752Z,50.63
2019-03-24T00:27:39.091Z,53.58
2019-03-24T00:30:42.408Z,53.23
2019-03-24T00:33:46.115Z,50.63
2019-03-24T00:36:49.483Z,54.48
2019-03-24T00:39:52.815Z,53.78
2019-03-24T00:42:56.151Z,52.20
2019-03-24T00:46:00.165Z,53.78
2019-03-24T00:49:04.952Z,53.08
2019-03-24T00:52:09.565Z,51.98
2019-03-24T00:55:12.956Z,47.93
2019-03-24T00:58:16.265Z,50.55
2019-03-24T01:01:19.666Z,52.08
2019-03-24T01:04:23.015Z,51.80
2019-03-24T01:07:26.333Z,52.20
2019-03-24T01:10:29.630Z,51.23
2019-03-24T01:13:32.987Z,53.13
2019-03-24T01:16:36.320Z,51.70
2019-03-24T01:19:39.667Z,47.73
2019-03-24T01:22:42.975Z,50.40
2019-03-24T01:25:46.287Z,51.55
2019-03-24T01:28:49.615Z,53.48
2019-03-24T01:31:52.939Z,52.90
2019-03-24T01:34:56.256Z,51.37
2019-03-24T01:37:59.559Z,50.10
2019-03-24T01:41:03.071Z,50.98
2019-03-24T01:44:06.402Z,52.15
2019-03-24T01:47:09.736Z,50.33
2019-03-24T01:50:13.047Z,51.73
2019-03-24T01:53:16.379Z,49.98
2019-03-24T01:56:19.704Z,49.83
2019-03-24T01:59:23.013Z,49.53
2019-03-24T02:02:26.360Z,45.28
2019-03-24T02:05:29.677Z,46.02
2019-03-24T02:08:33.004Z,46.73
2019-03-24T02:11:36.333Z,46.30
2019-03-24T02:14:39.650Z,47.30
2019-03-24T02:17:42.979Z,47.83
2019-03-24T02:20:46.297Z,47.73
2019-03-24T02:23:49.630Z,47.00
2019-03-24T02:26:52.968Z,48.13
2019-03-24T02:29:56.303Z,46.25
2019-03-24T02:32:59.631Z,47.98
2019-03-24T02:36:03.020Z,48.30
2019-03-24T02:39:07.547Z,49.08
2019-03-24T02:42:10.850Z,49.33
2019-03-24T02:45:14.204Z,48.58
2019-03-24T02:48:17.534Z,45.20
2019-03-24T02:51:20.890Z,47.10
2019-03-24T02:54:24.206Z,44.63
2019-03-24T02:57:27.552Z,42.03
2019-03-24T03:00:30.914Z,44.67
2019-03-24T03:03:39.859Z,42.60
2019-03-24T03:06:48.038Z,42.85
2019-03-24T03:09:51.344Z,41.37
2019-03-24T03:12:54.743Z,41.95
2019-03-24T03:15:58.100Z,42.80
2019-03-24T03:19:01.602Z,38.25
2019-03-24T03:22:04.986Z,40.38
2019-03-24T03:25:12.286Z,40.40
2019-03-24T03:28:18.671Z,40.60
2019-03-24T03:31:22.060Z,40.78
2019-03-24T03:34:25.417Z,38.88
2019-03-24T03:37:28.921Z,40.98
2019-03-24T03:40:32.360Z,35.33
2019-03-24T03:43:35.685Z,37.53
2019-03-24T03:46:52.297Z,37.75
2019-03-24T03:49:49.433Z,34.10
2019-03-24T03:52:52.766Z,34.35
2019-03-24T03:55:56.086Z,34.00
2019-03-24T03:59:01.067Z,35.00
2019-03-24T04:02:07.478Z,32.28
2019-03-24T04:05:10.880Z,31.82
2019-03-24T04:08:14.207Z,29.52
2019-03-24T04:11:20.938Z,30.57
2019-03-24T04:14:24.185Z,29.50
2019-03-24T04:17:27.535Z,27.50
2019-03-24T04:20:30.854Z,26.20
2019-03-24T04:23:34.173Z,28.25
2019-03-24T04:26:37.541Z,27.77
2019-03-24T04:29:43.534Z,30.02
2019-03-24T04:32:48.679Z,28.12
2019-03-24T04:35:51.984Z,28.60
2019-03-24T04:38:55.449Z,28.87
2019-03-24T04:41:58.806Z,26.40
2019-03-24T04:45:02.125Z,23.62
2019-03-24T04:48:05.475Z,22.10
2019-03-24T04:51:08.824Z,20.20
2019-03-24T04:54:12.146Z,21.97
2019-03-24T04:57:15.506Z,21.82
2019-03-24T05:00:22.121Z,22.02
2019-03-24T05:03:25.441Z,21.75
2019-03-24T05:06:28.838Z,22.82
2019-03-24T05:09:32.336Z,23.60
2019-03-24T05:12:35.641Z,21.33
2019-03-24T05:15:38.936Z,22.20
2019-03-24T05:18:42.543Z,21.40
2019-03-24T05:21:45.872Z,22.95
2019-03-24T05:24:49.233Z,23.45
2019-03-24T05:27:52.894Z,21.40
2019-03-24T05:30:56.296Z,20.23
2019-03-24T05:33:59.645Z,21.70
2019-03-24T05:37:03.036Z,23.40
2019-03-24T05:40:06.640Z,21.15
2019-03-24T05:43:10.124Z,23.42
2019-03-24T05:46:13.547Z,21.12
2019-03-24T05:49:16.965Z,23.62
2019-03-24T05:52:20.348Z,23.92
2019-03-24T05:55:23.722Z,22.22
2019-03-24T05:58:27.101Z,22.42
2019-03-24T06:01:30.604Z,22.07
2019-03-24T06:04:34.055Z,25.97
2019-03-24T06:07:37.412Z,24.52
2019-03-24T06:10:41.074Z,22.45
2019-03-24T06:13:46.029Z,24.23
2019-03-24T06:16:49.296Z,24.12
2019-03-24T06:19:54.288Z,24.02
2019-03-24T06:22:57.620Z,24.27
2019-03-24T06:26:02.672Z,25.00
2019-03-24T06:29:06.101Z,23.55
2019-03-24T06:32:09.622Z,23.67
2019-03-24T06:35:13.080Z,22.48
2019-03-24T06:38:16.403Z,24.70
2019-03-24T06:41:19.965Z,22.32
2019-03-24T06:44:23.306Z,24.10
2019-03-24T06:47:26.811Z,23.62
2019-03-24T06:50:31.823Z,21.40
2019-03-24T06:53:36.781Z,24.55
2019-03-24T06:56:41.908Z,22.40
2019-03-24T06:59:45.175Z,22.82
2019-03-24T07:02:48.631Z,22.93
2019-03-24T07:05:53.631Z,23.12
2019-03-24T07:08:58.240Z,22.87
2019-03-24T07:12:01.527Z,23.00
2019-03-24T07:15:06.734Z,21.97
2019-03-24T07:18:11.735Z,21.52
2019-03-24T07:21:22.172Z,22.32
2019-03-24T07:24:25.677Z,22.90
2019-03-24T07:27:29.003Z,22.58
2019-03-24T07:30:32.337Z,22.20
2019-03-24T07:33:35.909Z,25.02
2019-03-24T07:36:39.506Z,21.55
2019-03-24T07:39:42.821Z,23.20
2019-03-24T07:42:46.168Z,22.40
2019-03-24T07:45:49.598Z,22.80
2019-03-24T07:48:52.911Z,23.65
2019-03-24T07:51:56.341Z,22.32
2019-03-24T07:54:59.699Z,23.52
2019-03-24T07:58:03.100Z,22.73
2019-03-24T08:01:06.452Z,23.00
2019-03-24T08:04:11.407Z,22.07
2019-03-24T08:07:16.448Z,22.40
2019-03-24T08:10:19.886Z,23.35
2019-03-24T08:13:23.327Z,23.87
2019-03-24T08:16:26.678Z,23.27
2019-03-24T08:19:30.174Z,22.22
2019-03-24T08:22:33.714Z,21.45
2019-03-24T08:25:37.001Z,22.85
2019-03-24T08:28:40.354Z,23.07
2019-03-24T08:31:43.778Z,24.40
2019-03-24T08:34:48.422Z,24.23
2019-03-24T08:37:52.119Z,25.00
2019-03-24T08:40:55.415Z,25.00
2019-03-24T08:43:58.754Z,26.05
2019-03-24T08:47:02.102Z,26.75
2019-03-24T08:50:07.243Z,27.20
2019-03-24T08:53:10.561Z,29.10
2019-03-24T08:56:14.063Z,28.40
2019-03-24T08:59:17.400Z,27.93
2019-03-24T09:02:20.867Z,28.90
2019-03-24T09:05:24.165Z,30.43
2019-03-24T09:08:27.495Z,30.37
2019-03-24T09:11:31.675Z,28.98
2019-03-24T09:14:35.142Z,28.83
2019-03-24T09:17:40.975Z,29.30
2019-03-24T09:20:43.532Z,29.23
2019-03-24T09:23:46.883Z,29.42
2019-03-24T09:26:50.209Z,29.12
2019-03-24T09:29:53.553Z,27.05
2019-03-24T09:32:56.884Z,28.85
2019-03-24T09:36:00.281Z,28.35
2019-03-24T09:39:04.988Z,25.88
2019-03-24T09:42:08.304Z,29.20
2019-03-24T09:45:11.627Z,29.45
2019-03-24T09:48:14.951Z,28.85
2019-03-24T09:51:18.283Z,29.52
2019-03-24T09:54:21.635Z,30.52
2019-03-24T09:57:24.924Z,28.95
2019-03-24T10:00:28.278Z,29.25
2019-03-24T10:03:31.600Z,26.80
2019-03-24T10:06:34.917Z,29.67
2019-03-24T10:09:38.300Z,30.45
2019-03-24T10:12:41.647Z,26.87
2019-03-24T10:15:44.955Z,26.70
2019-03-24T10:18:48.370Z,30.27
2019-03-24T10:21:51.760Z,28.07
2019-03-24T10:24:55.057Z,27.10
2019-03-24T10:27:58.395Z,27.85
2019-03-24T10:31:01.764Z,28.05
2019-03-24T10:34:05.084Z,27.48
2019-03-24T10:37:08.439Z,27.62
2019-03-24T10:40:12.526Z,27.90
2019-03-24T10:43:15.859Z,24.10
2019-03-24T10:46:19.190Z,27.65
2019-03-24T10:49:25.012Z,26.27
2019-03-24T10:52:27.561Z,28.83
2019-03-24T10:55:30.890Z,25.43
2019-03-24T10:58:34.245Z,25.95
2019-03-24T11:01:37.538Z,28.23
2019-03-24T11:04:40.879Z,25.75
2019-03-24T11:07:44.233Z,29.05
2019-03-24T11:10:47.540Z,25.40
2019-03-24T11:13:50.879Z,26.20
2019-03-24T11:16:54.181Z,25.52
2019-03-24T11:19:57.520Z,27.70
2019-03-24T11:23:00.874Z,26.40
2019-03-24T11:26:04.180Z,27.73
2019-03-24T11:29:07.522Z,27.42
2019-03-24T11:32:10.842Z,26.73
2019-03-24T11:35:14.168Z,26.85
2019-03-24T11:38:17.504Z,28.10
2019-03-24T11:41:20.852Z,26.45
2019-03-24T11:44:24.218Z,27.80
2019-03-24T11:47:27.485Z,27.67
2019-03-24T11:50:30.806Z,23.30
2019-03-24T11:53:34.204Z,25.12
2019-03-24T11:56:37.526Z,28.50
2019-03-24T11:59:40.877Z,27.62
2019-03-24T12:02:44.313Z,25.37
2019-03-24T12:05:47.627Z,27.48
2019-03-24T12:08:51.185Z,24.45
2019-03-24T12:11:54.534Z,24.45
2019-03-24T12:14:57.847Z,27.62
2019-03-24T12:18:01.189Z,26.60
2019-03-24T12:21:04.523Z,26.30
2019-03-24T12:24:07.830Z,25.32
2019-03-24T12:27:11.198Z,27.70
2019-03-24T12:30:14.484Z,29.18
2019-03-24T12:33:17.822Z,21.10
2019-03-24T12:36:21.156Z,24.47
2019-03-24T12:39:24.472Z,27.48
2019-03-24T12:42:27.817Z,26.73
2019-03-24T12:45:33.517Z,28.12
2019-03-24T12:48:36.207Z,27.85
2019-03-24T12:51:39.562Z,27.25
2019-03-24T12:54:42.903Z,30.02
2019-03-24T12:57:46.209Z,29.07
2019-03-24T13:00:49.532Z,30.30
2019-03-24T13:03:52.867Z,31.60
2019-03-24T13:06:56.191Z,28.95
2019-03-24T13:09:59.530Z,29.18
2019-03-24T13:13:02.936Z,25.30
2019-03-24T13:16:06.261Z,23.73
2019-03-24T13:19:09.578Z,25.35
2019-03-24T13:22:12.918Z,25.85
2019-03-24T13:25:16.215Z,23.75
2019-03-24T13:28:19.576Z,25.48
2019-03-24T13:31:22.913Z,25.12
2019-03-24T13:34:26.214Z,25.25
2019-03-24T13:37:29.538Z,23.00
2019-03-24T13:40:32.851Z,23.42
2019-03-24T13:43:36.179Z,23.42
2019-03-24T13:46:39.526Z,22.77
2019-03-24T13:49:42.836Z,23.50
2019-03-24T13:52:46.179Z,22.95
2019-03-24T13:55:49.555Z,21.15
2019-03-24T13:58:52.959Z,20.02
2019-03-24T14:01:56.318Z,18.50
2019-03-24T14:04:59.693Z,18.52
2019-03-24T14:08:03.013Z,18.57
2019-03-24T14:11:06.359Z,17.37
2019-03-24T14:14:09.688Z,18.42
2019-03-24T14:17:13.333Z,17.65
2019-03-24T14:20:16.649Z,17.92
2019-03-24T14:23:19.991Z,25.30
2019-03-24T14:26:23.296Z,16.77
2019-03-24T14:29:27.234Z,17.85
2019-03-24T14:32:30.675Z,18.80
2019-03-24T14:35:33.994Z,17.87
2019-03-24T14:38:37.310Z,18.00
2019-03-24T14:41:40.667Z,17.77
2019-03-24T14:44:43.997Z,17.87
2019-03-24T14:47:47.312Z,19.05
2019-03-24T14:50:54.860Z,18.90
2019-03-24T14:53:55.686Z,17.98
2019-03-24T14:56:59.023Z,16.20
2019-03-24T15:00:02.732Z,16.07
2019-03-24T15:03:06.064Z,19.92
2019-03-24T15:06:09.407Z,19.15
2019-03-24T15:09:12.746Z,17.55
2019-03-24T15:12:16.073Z,16.10
2019-03-24T15:15:19.474Z,15.65
2019-03-24T15:18:22.797Z,16.55
2019-03-24T15:21:26.130Z,16.20
2019-03-24T15:24:29.479Z,16.25
2019-03-24T15:27:32.783Z,15.98
2019-03-24T15:30:36.143Z,16.23
2019-03-24T15:33:39.492Z,15.78
2019-03-24T15:36:42.815Z,16.87
2019-03-24T15:39:46.134Z,16.30
2019-03-24T15:42:49.459Z,16.67
2019-03-24T15:45:52.816Z,16.45
2019-03-24T15:48:56.178Z,17.80
2019-03-24T15:51:59.500Z,16.60
2019-03-24T15:55:03.316Z,16.97
2019-03-24T15:58:06.611Z,17.32
2019-03-24T16:01:09.945Z,16.37
2019-03-24T16:04:13.268Z,17.48
2019-03-24T16:07:16.610Z,15.50
2019-03-24T16:10:19.944Z,16.05
2019-03-24T16:13:23.264Z,15.88
2019-03-24T16:16:26.746Z,16.70
2019-03-24T16:19:30.105Z,16.10
2019-03-24T16:22:33.398Z,14.80
2019-03-24T16:25:36.764Z,14.98
2019-03-24T16:28:40.098Z,14.58
2019-03-24T16:31:43.439Z,16.55
2019-03-24T16:34:46.805Z,14.50
2019-03-24T16:37:50.094Z,18.27
2019-03-24T16:40:53.449Z,17.48
2019-03-24T16:43:56.819Z,17.02
2019-03-24T16:47:00.169Z,18.45
2019-03-24T16:50:05.137Z,17.23
2019-03-24T16:53:08.455Z,17.87
2019-03-24T16:56:11.781Z,16.50
2019-03-24T16:59:15.157Z,17.82
2019-03-24T17:02:18.479Z,17.90
2019-03-24T17:05:21.832Z,18.90
2019-03-24T17:08:25.307Z,17.00
2019-03-24T17:11:28.620Z,17.15
2019-03-24T17:14:31.972Z,18.73
2019-03-24T17:17:35.301Z,18.65
2019-03-24T17:20:38.701Z,16.87
2019-03-24T17:23:42.041Z,15.93
2019-03-24T17:26:45.367Z,17.62
2019-03-24T17:29:48.698Z,15.65
2019-03-24T17:32:52.035Z,16.70
2019-03-24T17:35:55.431Z,16.32
2019-03-24T17:38:58.737Z,21.37
2019-03-24T17:42:02.142Z,16.70
2019-03-24T17:45:10.260Z,17.10
2019-03-24T17:48:13.577Z,18.17
2019-03-24T17:51:16.913Z,21.97
2019-03-24T17:54:20.327Z,25.17
2019-03-24T17:57:23.649Z,24.10
2019-03-24T18:00:43.166Z,23.00
2019-03-24T18:03:46.490Z,28.70
2019-03-24T18:06:49.812Z,27.30
2019-03-24T18:09:53.132Z,28.12
2019-03-24T18:12:56.468Z,28.15
2019-03-24T18:15:59.811Z,27.13
2019-03-24T18:19:03.190Z,27.50
2019-03-24T18:22:11.550Z,28.10
2019-03-24T18:25:11.569Z,28.02
2019-03-24T18:28:14.928Z,27.75
2019-03-24T18:31:18.227Z,26.07
2019-03-24T18:34:21.575Z,28.62
2019-03-24T18:37:24.917Z,26.17
2019-03-24T18:40:28.244Z,28.17
2019-03-24T18:43:31.570Z,28.55
2019-03-24T18:46:34.898Z,30.90
2019-03-24T18:49:38.270Z,26.42
2019-03-24T18:52:41.661Z,26.85
2019-03-24T18:55:44.983Z,27.95
2019-03-24T18:58:48.358Z,27.62
2019-03-24T19:01:51.645Z,27.25
2019-03-24T19:04:55.045Z,25.02
2019-03-24T19:07:58.389Z,25.62
2019-03-24T19:11:01.733Z,26.75
2019-03-24T19:14:05.246Z,26.82
2019-03-24T19:17:10.130Z,26.42
2019-03-24T19:20:14.591Z,24.67
2019-03-24T19:23:17.907Z,27.00
2019-03-24T19:26:21.241Z,25.77
2019-03-24T19:29:24.579Z,24.50
2019-03-24T19:32:28.499Z,26.33
2019-03-24T19:35:31.992Z,29.25
2019-03-24T19:38:35.991Z,25.88
2019-03-24T19:41:39.338Z,26.10
2019-03-24T19:44:43.180Z,26.05
2019-03-24T19:47:46.506Z,25.60
2019-03-24T19:50:49.866Z,26.65
2019-03-24T19:53:53.955Z,27.50
2019-03-24T19:56:58.080Z,25.00
2019-03-24T20:00:01.593Z,26.37
2019-03-24T20:03:05.101Z,25.75
2019-03-24T20:06:09.105Z,25.75
2019-03-24T20:09:12.683Z,20.82
2019-03-24T20:12:16.029Z,20.48
2019-03-24T20:15:19.565Z,20.15
2019-03-24T20:18:23.387Z,18.73
2019-03-24T20:21:32.125Z,17.85
2019-03-24T20:24:35.678Z,17.70
2019-03-24T20:27:39.013Z,17.82
2019-03-24T20:30:42.356Z,17.52
2019-03-24T20:33:45.712Z,15.95
2019-03-24T20:36:49.064Z,17.70
2019-03-24T20:39:52.568Z,20.50
2019-03-24T20:42:55.902Z,20.17
2019-03-24T20:45:59.534Z,16.05
2019-03-24T20:49:02.855Z,39.88
2019-03-24T20:52:06.236Z,23.65
2019-03-24T20:55:09.666Z,15.60
2019-03-24T20:58:13.005Z,16.05
2019-03-24T21:01:18.732Z,16.70
2019-03-24T21:04:21.423Z,15.75
2019-03-24T21:07:24.832Z,15.75
2019-03-24T21:10:29.843Z,16.77
2019-03-24T21:13:33.233Z,16.15
2019-03-24T21:16:36.570Z,14.23
2019-03-24T21:19:39.907Z,15.48
2019-03-24T21:22:43.227Z,17.67
2019-03-24T21:25:46.568Z,20.00
2019-03-24T21:28:51.931Z,18.67
2019-03-24T21:31:55.328Z,17.50
2019-03-24T21:34:58.721Z,18.45
2019-03-24T21:38:02.039Z,17.82
2019-03-24T21:41:05.397Z,16.90
2019-03-24T21:44:08.782Z,16.05
2019-03-24T21:47:12.123Z,16.27
2019-03-24T21:50:15.442Z,14.25
2019-03-24T21:53:18.757Z,13.98
2019-03-24T21:56:22.163Z,12.90
2019-03-24T21:59:25.452Z,14.03
2019-03-24T22:02:28.958Z,13.43
2019-03-24T22:05:32.293Z,11.75
2019-03-24T22:08:35.618Z,11.05
2019-03-24T22:11:38.969Z,10.05
2019-03-24T22:14:42.307Z,8.95
2019-03-24T22:17:45.624Z,8.43
2019-03-24T22:20:49.389Z,9.10
2019-03-24T22:23:52.809Z,9.73
2019-03-24T22:26:56.152Z,7.75
2019-03-24T22:29:59.455Z,7.78
2019-03-24T22:33:02.780Z,8.35
2019-03-24T22:36:06.110Z,8.63
2019-03-24T22:39:09.462Z,9.35
2019-03-24T22:42:12.862Z,8.93
2019-03-24T22:45:16.235Z,9.20
2019-03-24T22:48:19.560Z,8.60
2019-03-24T22:51:22.900Z,8.30
2019-03-24T22:54:29.100Z,9.40
2019-03-24T22:57:32.728Z,10.15
2019-03-24T23:00:51.087Z,9.93
2019-03-24T23:03:56.059Z,8.65
2019-03-24T23:06:59.394Z,18.00
2019-03-24T23:10:02.756Z,29.98
2019-03-24T23:13:06.094Z,11.53
2019-03-24T23:16:09.484Z,34.23
2019-03-24T23:19:12.815Z,9.18
2019-03-24T23:22:16.118Z,9.25
2019-03-24T23:25:19.453Z,9.68
2019-03-24T23:28:22.776Z,9.13
2019-03-24T23:31:26.083Z,9.88
2019-03-24T23:34:29.476Z,9.55
2019-03-24T23:37:32.818Z,9.03
2019-03-24T23:40:36.125Z,9.75
2019-03-24T23:43:39.429Z,10.25
2019-03-24T23:46:42.823Z,10.33
2019-03-24T23:49:46.137Z,11.22
2019-03-24T23:52:49.446Z,10.40
2019-03-24T23:55:52.819Z,9.50
2019-03-24T23:58:56.143Z,9.10
